Terminal Aerodrome Forecast
Issued by NWS

Home | Current Version | Previous Version | Text Only | Print | Product List | Glossary Off
Versions: 1 2 3 4 5 6 7 8 9 10 11 12 13 14

000
FTUS43 KBIS 272327
TAFJMS
TAF
KJMS 272327Z 2800/2824 29014G22KT P6SM SCT070
     FM280200 32007KT P6SM SKC
     FM281700 34013G21KT P6SM SCT050=

USA.gov is the U.S. government's official web portal to all federal, state and local government web resources and services.